sensor_id;sensor_type;location;lat;lon;timestamp;P1;durP1;ratioP1;P2;durP2;ratioP2
8007;SDS011;4049;49.468;11.200;2024-03-02T00:01:31;26.37;;;14.33;;
8007;SDS011;4049;49.468;11.200;2024-03-02T00:03:58;22.97;;;14.17;;
8007;SDS011;4049;49.468;11.200;2024-03-02T00:06:27;28.87;;;15.73;;
8007;SDS011;4049;49.468;11.200;2024-03-02T00:08:56;29.17;;;16.03;;
8007;SDS011;4049;49.468;11.200;2024-03-02T00:11:24;27.50;;;15.40;;
8007;SDS011;4049;49.468;11.200;2024-03-02T00:13:52;29.77;;;16.73;;
8007;SDS011;4049;49.468;11.200;2024-03-02T00:16:19;28.97;;;15.60;;
8007;SDS011;4049;49.468;11.200;2024-03-02T00:18:46;28.43;;;15.67;;
8007;SDS011;4049;49.468;11.200;2024-03-02T00:21:13;28.60;;;15.20;;
8007;SDS011;4049;49.468;11.200;2024-03-02T00:23:43;27.13;;;15.90;;
8007;SDS011;4049;49.468;11.200;2024-03-02T00:26:10;31.50;;;17.33;;
8007;SDS011;4049;49.468;11.200;2024-03-02T00:28:38;26.70;;;15.33;;
8007;SDS011;4049;49.468;11.200;2024-03-02T00:31:09;28.80;;;15.57;;
8007;SDS011;4049;49.468;11.200;2024-03-02T00:33:38;31.27;;;16.30;;
8007;SDS011;4049;49.468;11.200;2024-03-02T00:36:07;30.37;;;16.30;;
8007;SDS011;4049;49.468;11.200;2024-03-02T00:38:35;31.93;;;16.93;;
8007;SDS011;4049;49.468;11.200;2024-03-02T00:41:15;32.00;;;16.43;;
8007;SDS011;4049;49.468;11.200;2024-03-02T00:43:45;30.03;;;16.07;;
8007;SDS011;4049;49.468;11.200;2024-03-02T00:46:17;29.60;;;15.93;;
8007;SDS011;4049;49.468;11.200;2024-03-02T00:48:48;25.93;;;15.03;;
8007;SDS011;4049;49.468;11.200;2024-03-02T00:51:19;27.20;;;16.63;;
8007;SDS011;4049;49.468;11.200;2024-03-02T00:53:47;30.50;;;16.47;;
8007;SDS011;4049;49.468;11.200;2024-03-02T00:56:15;28.27;;;16.77;;
8007;SDS011;4049;49.468;11.200;2024-03-02T00:58:43;29.03;;;15.27;;
8007;SDS011;4049;49.468;11.200;2024-03-02T01:01:10;31.27;;;16.17;;
8007;SDS011;4049;49.468;11.200;2024-03-02T01:03:37;29.80;;;16.97;;
8007;SDS011;4049;49.468;11.200;2024-03-02T01:06:04;28.57;;;17.27;;
8007;SDS011;4049;49.468;11.200;2024-03-02T01:08:32;34.67;;;17.30;;
8007;SDS011;4049;49.468;11.200;2024-03-02T01:11:01;33.40;;;17.77;;
8007;SDS011;4049;49.468;11.200;2024-03-02T01:13:28;39.40;;;17.73;;
8007;SDS011;4049;49.468;11.200;2024-03-02T01:15:55;35.77;;;17.60;;
8007;SDS011;4049;49.468;11.200;2024-03-02T01:18:22;32.60;;;17.30;;
8007;SDS011;4049;49.468;11.200;2024-03-02T01:20:49;34.27;;;16.97;;
8007;SDS011;4049;49.468;11.200;2024-03-02T01:23:17;31.80;;;17.80;;
8007;SDS011;4049;49.468;11.200;2024-03-02T01:25:45;37.07;;;18.97;;
8007;SDS011;4049;49.468;11.200;2024-03-02T01:28:14;33.03;;;17.20;;
8007;SDS011;4049;49.468;11.200;2024-03-02T01:30:41;30.80;;;17.23;;
8007;SDS011;4049;49.468;11.200;2024-03-02T01:33:08;34.67;;;17.17;;
8007;SDS011;4049;49.468;11.200;2024-03-02T01:35:35;30.30;;;16.00;;
8007;SDS011;4049;49.468;11.200;2024-03-02T01:38:03;27.23;;;16.63;;
8007;SDS011;4049;49.468;11.200;2024-03-02T01:40:31;30.20;;;16.77;;
8007;SDS011;4049;49.468;11.200;2024-03-02T01:42:58;31.60;;;16.57;;
8007;SDS011;4049;49.468;11.200;2024-03-02T01:45:26;31.40;;;17.73;;
8007;SDS011;4049;49.468;11.200;2024-03-02T01:47:53;33.00;;;17.33;;
8007;SDS011;4049;49.468;11.200;2024-03-02T01:50:24;35.97;;;17.33;;
8007;SDS011;4049;49.468;11.200;2024-03-02T01:52:55;31.33;;;17.43;;
8007;SDS011;4049;49.468;11.200;2024-03-02T01:55:22;32.30;;;17.87;;
8007;SDS011;4049;49.468;11.200;2024-03-02T01:57:49;34.83;;;17.43;;
8007;SDS011;4049;49.468;11.200;2024-03-02T02:00:17;35.40;;;18.23;;
8007;SDS011;4049;49.468;11.200;2024-03-02T02:02:46;32.07;;;18.03;;
8007;SDS011;4049;49.468;11.200;2024-03-02T02:05:13;27.60;;;16.57;;
8007;SDS011;4049;49.468;11.200;2024-03-02T02:07:42;32.60;;;17.33;;
8007;SDS011;4049;49.468;11.200;2024-03-02T02:10:09;31.40;;;18.13;;
8007;SDS011;4049;49.468;11.200;2024-03-02T02:12:39;32.93;;;18.20;;
8007;SDS011;4049;49.468;11.200;2024-03-02T02:15:21;33.00;;;18.43;;
8007;SDS011;4049;49.468;11.200;2024-03-02T02:17:50;36.53;;;18.87;;
8007;SDS011;4049;49.468;11.200;2024-03-02T02:20:17;37.47;;;19.00;;
8007;SDS011;4049;49.468;11.200;2024-03-02T02:22:56;36.67;;;18.10;;
8007;SDS011;4049;49.468;11.200;2024-03-02T02:25:24;33.83;;;18.13;;
8007;SDS011;4049;49.468;11.200;2024-03-02T02:27:51;34.60;;;18.73;;
8007;SDS011;4049;49.468;11.200;2024-03-02T02:30:19;33.97;;;17.03;;
8007;SDS011;4049;49.468;11.200;2024-03-02T02:32:47;33.17;;;18.57;;
8007;SDS011;4049;49.468;11.200;2024-03-02T02:35:14;37.83;;;19.43;;
8007;SDS011;4049;49.468;11.200;2024-03-02T02:37:41;32.20;;;17.77;;
8007;SDS011;4049;49.468;11.200;2024-03-02T02:40:10;34.60;;;18.47;;
8007;SDS011;4049;49.468;11.200;2024-03-02T02:42:37;42.60;;;18.53;;
8007;SDS011;4049;49.468;11.200;2024-03-02T02:45:05;36.13;;;19.30;;
8007;SDS011;4049;49.468;11.200;2024-03-02T02:47:32;35.87;;;18.90;;
8007;SDS011;4049;49.468;11.200;2024-03-02T02:50:00;33.30;;;19.93;;
8007;SDS011;4049;49.468;11.200;2024-03-02T02:52:30;35.17;;;18.83;;
8007;SDS011;4049;49.468;11.200;2024-03-02T02:55:00;32.40;;;18.17;;
8007;SDS011;4049;49.468;11.200;2024-03-02T02:57:29;33.20;;;17.63;;
8007;SDS011;4049;49.468;11.200;2024-03-02T03:00:00;32.97;;;18.13;;
8007;SDS011;4049;49.468;11.200;2024-03-02T03:02:27;34.57;;;17.70;;
8007;SDS011;4049;49.468;11.200;2024-03-02T03:04:54;33.43;;;18.00;;
8007;SDS011;4049;49.468;11.200;2024-03-02T03:07:22;29.57;;;16.67;;
8007;SDS011;4049;49.468;11.200;2024-03-02T03:09:49;33.33;;;17.80;;
8007;SDS011;4049;49.468;11.200;2024-03-02T03:12:15;31.83;;;17.57;;
8007;SDS011;4049;49.468;11.200;2024-03-02T03:14:44;34.20;;;17.23;;
8007;SDS011;4049;49.468;11.200;2024-03-02T03:17:11;35.07;;;17.67;;
8007;SDS011;4049;49.468;11.200;2024-03-02T03:19:38;34.43;;;17.67;;
8007;SDS011;4049;49.468;11.200;2024-03-02T03:22:04;35.83;;;18.13;;
8007;SDS011;4049;49.468;11.200;2024-03-02T03:24:31;34.57;;;18.23;;
8007;SDS011;4049;49.468;11.200;2024-03-02T03:26:59;38.43;;;18.87;;
8007;SDS011;4049;49.468;11.200;2024-03-02T03:29:25;32.10;;;17.97;;
8007;SDS011;4049;49.468;11.200;2024-03-02T03:31:54;33.73;;;18.03;;
8007;SDS011;4049;49.468;11.200;2024-03-02T03:34:20;35.47;;;19.03;;
8007;SDS011;4049;49.468;11.200;2024-03-02T03:36:47;36.33;;;19.53;;
8007;SDS011;4049;49.468;11.200;2024-03-02T03:39:14;37.23;;;18.13;;
8007;SDS011;4049;49.468;11.200;2024-03-02T03:41:41;34.50;;;18.90;;
8007;SDS011;4049;49.468;11.200;2024-03-02T03:44:08;34.10;;;17.33;;
8007;SDS011;4049;49.468;11.200;2024-03-02T03:46:35;32.40;;;18.00;;
8007;SDS011;4049;49.468;11.200;2024-03-02T03:49:03;33.80;;;18.30;;
8007;SDS011;4049;49.468;11.200;2024-03-02T03:51:30;38.43;;;19.13;;
8007;SDS011;4049;49.468;11.200;2024-03-02T03:53:57;35.53;;;19.03;;
8007;SDS011;4049;49.468;11.200;2024-03-02T03:56:24;33.73;;;17.50;;
8007;SDS011;4049;49.468;11.200;2024-03-02T03:58:51;35.00;;;18.63;;
8007;SDS011;4049;49.468;11.200;2024-03-02T04:01:18;34.63;;;18.27;;
8007;SDS011;4049;49.468;11.200;2024-03-02T04:03:47;32.50;;;17.33;;
8007;SDS011;4049;49.468;11.200;2024-03-02T04:06:15;29.93;;;16.60;;
8007;SDS011;4049;49.468;11.200;2024-03-02T04:08:42;33.13;;;16.60;;
8007;SDS011;4049;49.468;11.200;2024-03-02T04:11:09;29.27;;;15.77;;
8007;SDS011;4049;49.468;11.200;2024-03-02T04:13:36;28.80;;;16.03;;
8007;SDS011;4049;49.468;11.200;2024-03-02T04:16:03;29.07;;;15.93;;
8007;SDS011;4049;49.468;11.200;2024-03-02T04:18:31;28.70;;;15.20;;
8007;SDS011;4049;49.468;11.200;2024-03-02T04:20:58;28.13;;;14.90;;
8007;SDS011;4049;49.468;11.200;2024-03-02T04:23:26;22.57;;;13.60;;
8007;SDS011;4049;49.468;11.200;2024-03-02T04:25:56;26.10;;;13.70;;
8007;SDS011;4049;49.468;11.200;2024-03-02T04:28:23;23.63;;;13.37;;
8007;SDS011;4049;49.468;11.200;2024-03-02T04:30:50;27.07;;;14.40;;
8007;SDS011;4049;49.468;11.200;2024-03-02T04:33:17;23.60;;;13.07;;
8007;SDS011;4049;49.468;11.200;2024-03-02T04:35:43;25.63;;;15.37;;
8007;SDS011;4049;49.468;11.200;2024-03-02T04:38:11;27.37;;;13.43;;
8007;SDS011;4049;49.468;11.200;2024-03-02T04:40:39;23.17;;;13.33;;
8007;SDS011;4049;49.468;11.200;2024-03-02T04:43:06;22.50;;;13.03;;
8007;SDS011;4049;49.468;11.200;2024-03-02T04:45:34;23.53;;;12.60;;
8007;SDS011;4049;49.468;11.200;2024-03-02T04:48:02;24.40;;;12.70;;
8007;SDS011;4049;49.468;11.200;2024-03-02T04:50:29;25.10;;;14.07;;
8007;SDS011;4049;49.468;11.200;2024-03-02T04:52:56;24.33;;;13.13;;
8007;SDS011;4049;49.468;11.200;2024-03-02T04:55:23;24.87;;;14.07;;
8007;SDS011;4049;49.468;11.200;2024-03-02T04:58:11;25.80;;;14.40;;
8007;SDS011;4049;49.468;11.200;2024-03-02T05:00:38;24.33;;;13.97;;
8007;SDS011;4049;49.468;11.200;2024-03-02T05:03:05;30.23;;;15.70;;
8007;SDS011;4049;49.468;11.200;2024-03-02T05:05:32;24.20;;;14.60;;
8007;SDS011;4049;49.468;11.200;2024-03-02T05:08:00;25.30;;;14.07;;
8007;SDS011;4049;49.468;11.200;2024-03-02T05:10:27;29.13;;;15.33;;
8007;SDS011;4049;49.468;11.200;2024-03-02T05:12:54;27.67;;;14.53;;
8007;SDS011;4049;49.468;11.200;2024-03-02T05:15:26;25.30;;;14.80;;
8007;SDS011;4049;49.468;11.200;2024-03-02T05:17:52;25.03;;;12.77;;
8007;SDS011;4049;49.468;11.200;2024-03-02T05:20:19;22.03;;;12.77;;
8007;SDS011;4049;49.468;11.200;2024-03-02T05:22:46;23.10;;;13.57;;
8007;SDS011;4049;49.468;11.200;2024-03-02T05:25:13;22.87;;;12.63;;
8007;SDS011;4049;49.468;11.200;2024-03-02T05:27:40;21.57;;;13.47;;
8007;SDS011;4049;49.468;11.200;2024-03-02T05:30:08;23.20;;;12.77;;
8007;SDS011;4049;49.468;11.200;2024-03-02T05:32:37;21.83;;;12.80;;
8007;SDS011;4049;49.468;11.200;2024-03-02T05:35:04;25.03;;;12.47;;
8007;SDS011;4049;49.468;11.200;2024-03-02T05:37:31;19.23;;;11.37;;
8007;SDS011;4049;49.468;11.200;2024-03-02T05:39:59;19.57;;;11.97;;
8007;SDS011;4049;49.468;11.200;2024-03-02T05:42:25;20.80;;;11.70;;
8007;SDS011;4049;49.468;11.200;2024-03-02T05:44:52;19.60;;;12.20;;
8007;SDS011;4049;49.468;11.200;2024-03-02T05:47:19;21.67;;;12.63;;
8007;SDS011;4049;49.468;11.200;2024-03-02T05:49:48;23.20;;;11.97;;
8007;SDS011;4049;49.468;11.200;2024-03-02T05:52:15;20.07;;;11.43;;
8007;SDS011;4049;49.468;11.200;2024-03-02T05:54:42;21.37;;;11.53;;
8007;SDS011;4049;49.468;11.200;2024-03-02T05:57:09;22.00;;;12.00;;
8007;SDS011;4049;49.468;11.200;2024-03-02T05:59:58;23.70;;;12.10;;
8007;SDS011;4049;49.468;11.200;2024-03-02T06:02:25;20.20;;;11.73;;
8007;SDS011;4049;49.468;11.200;2024-03-02T06:04:55;23.03;;;12.37;;
8007;SDS011;4049;49.468;11.200;2024-03-02T06:07:22;22.80;;;11.90;;
8007;SDS011;4049;49.468;11.200;2024-03-02T06:09:49;22.70;;;11.70;;
8007;SDS011;4049;49.468;11.200;2024-03-02T06:12:17;23.23;;;11.53;;
8007;SDS011;4049;49.468;11.200;2024-03-02T06:14:44;19.00;;;11.60;;
8007;SDS011;4049;49.468;11.200;2024-03-02T06:17:11;22.37;;;12.63;;
8007;SDS011;4049;49.468;11.200;2024-03-02T06:19:38;24.67;;;13.87;;
8007;SDS011;4049;49.468;11.200;2024-03-02T06:22:07;23.20;;;12.73;;
8007;SDS011;4049;49.468;11.200;2024-03-02T06:24:35;22.77;;;12.57;;
8007;SDS011;4049;49.468;11.200;2024-03-02T06:27:02;22.67;;;12.40;;
8007;SDS011;4049;49.468;11.200;2024-03-02T06:29:32;21.73;;;12.30;;
8007;SDS011;4049;49.468;11.200;2024-03-02T06:31:59;23.90;;;12.73;;
8007;SDS011;4049;49.468;11.200;2024-03-02T06:34:26;24.73;;;14.07;;
8007;SDS011;4049;49.468;11.200;2024-03-02T06:36:53;25.60;;;14.53;;
8007;SDS011;4049;49.468;11.200;2024-03-02T06:39:22;24.37;;;14.17;;
8007;SDS011;4049;49.468;11.200;2024-03-02T06:41:49;25.67;;;13.30;;
8007;SDS011;4049;49.468;11.200;2024-03-02T06:44:16;28.53;;;15.30;;
8007;SDS011;4049;49.468;11.200;2024-03-02T06:46:42;24.30;;;12.43;;
8007;SDS011;4049;49.468;11.200;2024-03-02T06:49:09;22.60;;;12.97;;
8007;SDS011;4049;49.468;11.200;2024-03-02T06:51:36;24.33;;;12.97;;
8007;SDS011;4049;49.468;11.200;2024-03-02T06:54:03;23.80;;;13.30;;
8007;SDS011;4049;49.468;11.200;2024-03-02T06:56:32;25.97;;;13.40;;
8007;SDS011;4049;49.468;11.200;2024-03-02T06:58:59;21.57;;;12.87;;
8007;SDS011;4049;49.468;11.200;2024-03-02T07:01:26;25.43;;;13.63;;
8007;SDS011;4049;49.468;11.200;2024-03-02T07:03:53;25.50;;;12.90;;
8007;SDS011;4049;49.468;11.200;2024-03-02T07:06:20;24.93;;;13.53;;
8007;SDS011;4049;49.468;11.200;2024-03-02T07:08:46;27.63;;;13.40;;
8007;SDS011;4049;49.468;11.200;2024-03-02T07:11:13;26.53;;;15.20;;
8007;SDS011;4049;49.468;11.200;2024-03-02T07:13:44;22.30;;;12.17;;
8007;SDS011;4049;49.468;11.200;2024-03-02T07:16:14;26.33;;;13.70;;
8007;SDS011;4049;49.468;11.200;2024-03-02T07:18:54;25.50;;;13.47;;
8007;SDS011;4049;49.468;11.200;2024-03-02T07:21:22;25.90;;;14.13;;
8007;SDS011;4049;49.468;11.200;2024-03-02T07:23:49;26.90;;;13.87;;
8007;SDS011;4049;49.468;11.200;2024-03-02T07:26:16;22.67;;;12.80;;
8007;SDS011;4049;49.468;11.200;2024-03-02T07:28:45;25.97;;;14.37;;
8007;SDS011;4049;49.468;11.200;2024-03-02T07:31:14;31.80;;;15.33;;
8007;SDS011;4049;49.468;11.200;2024-03-02T07:33:43;26.03;;;13.73;;
8007;SDS011;4049;49.468;11.200;2024-03-02T07:36:10;27.50;;;14.00;;
8007;SDS011;4049;49.468;11.200;2024-03-02T07:38:37;30.53;;;14.47;;
8007;SDS011;4049;49.468;11.200;2024-03-02T07:41:05;29.10;;;14.90;;
8007;SDS011;4049;49.468;11.200;2024-03-02T07:43:32;25.77;;;13.63;;
8007;SDS011;4049;49.468;11.200;2024-03-02T07:46:00;31.70;;;14.67;;
8007;SDS011;4049;49.468;11.200;2024-03-02T07:48:28;29.27;;;14.57;;
8007;SDS011;4049;49.468;11.200;2024-03-02T07:50:55;28.50;;;14.53;;
8007;SDS011;4049;49.468;11.200;2024-03-02T07:53:22;29.77;;;15.13;;
8007;SDS011;4049;49.468;11.200;2024-03-02T07:55:49;28.47;;;15.33;;
8007;SDS011;4049;49.468;11.200;2024-03-02T07:58:16;27.00;;;13.90;;
8007;SDS011;4049;49.468;11.200;2024-03-02T08:00:44;27.17;;;14.37;;
8007;SDS011;4049;49.468;11.200;2024-03-02T08:03:12;23.20;;;12.83;;
8007;SDS011;4049;49.468;11.200;2024-03-02T08:05:40;26.67;;;13.27;;
8007;SDS011;4049;49.468;11.200;2024-03-02T08:08:06;24.70;;;13.17;;
8007;SDS011;4049;49.468;11.200;2024-03-02T08:10:33;22.30;;;11.90;;
8007;SDS011;4049;49.468;11.200;2024-03-02T08:13:00;25.30;;;13.33;;
8007;SDS011;4049;49.468;11.200;2024-03-02T08:15:27;22.77;;;12.07;;
8007;SDS011;4049;49.468;11.200;2024-03-02T08:17:54;22.93;;;13.13;;
8007;SDS011;4049;49.468;11.200;2024-03-02T08:20:22;21.50;;;12.57;;
8007;SDS011;4049;49.468;11.200;2024-03-02T08:22:49;23.23;;;12.40;;
8007;SDS011;4049;49.468;11.200;2024-03-02T08:25:16;21.60;;;11.20;;
8007;SDS011;4049;49.468;11.200;2024-03-02T08:27:43;21.63;;;11.23;;
8007;SDS011;4049;49.468;11.200;2024-03-02T08:30:11;21.43;;;12.80;;
8007;SDS011;4049;49.468;11.200;2024-03-02T08:32:38;22.80;;;11.90;;
8007;SDS011;4049;49.468;11.200;2024-03-02T08:35:06;20.57;;;11.47;;
8007;SDS011;4049;49.468;11.200;2024-03-02T08:37:34;18.30;;;10.80;;
8007;SDS011;4049;49.468;11.200;2024-03-02T08:40:03;20.73;;;11.90;;
8007;SDS011;4049;49.468;11.200;2024-03-02T08:42:32;18.03;;;10.60;;
8007;SDS011;4049;49.468;11.200;2024-03-02T08:44:59;17.40;;;10.83;;
8007;SDS011;4049;49.468;11.200;2024-03-02T08:47:27;20.53;;;10.97;;
8007;SDS011;4049;49.468;11.200;2024-03-02T08:49:53;18.33;;;11.07;;
8007;SDS011;4049;49.468;11.200;2024-03-02T08:52:20;19.13;;;10.33;;
8007;SDS011;4049;49.468;11.200;2024-03-02T08:54:48;19.33;;;10.63;;
8007;SDS011;4049;49.468;11.200;2024-03-02T08:57:15;19.27;;;11.30;;
8007;SDS011;4049;49.468;11.200;2024-03-02T08:59:42;16.97;;;10.30;;
8007;SDS011;4049;49.468;11.200;2024-03-02T09:02:09;22.93;;;11.80;;
8007;SDS011;4049;49.468;11.200;2024-03-02T09:04:36;19.27;;;11.20;;
8007;SDS011;4049;49.468;11.200;2024-03-02T09:07:03;18.53;;;10.17;;
8007;SDS011;4049;49.468;11.200;2024-03-02T09:09:30;17.10;;;10.27;;
8007;SDS011;4049;49.468;11.200;2024-03-02T09:11:59;24.13;;;11.00;;
8007;SDS011;4049;49.468;11.200;2024-03-02T09:14:26;18.03;;;9.03;;
8007;SDS011;4049;49.468;11.200;2024-03-02T09:16:53;16.70;;;9.57;;
8007;SDS011;4049;49.468;11.200;2024-03-02T09:19:20;15.20;;;9.30;;
8007;SDS011;4049;49.468;11.200;2024-03-02T09:21:47;14.03;;;9.23;;
8007;SDS011;4049;49.468;11.200;2024-03-02T09:24:14;14.73;;;9.17;;
8007;SDS011;4049;49.468;11.200;2024-03-02T09:26:41;14.13;;;9.00;;
8007;SDS011;4049;49.468;11.200;2024-03-02T09:29:09;13.70;;;8.60;;
8007;SDS011;4049;49.468;11.200;2024-03-02T09:31:38;17.03;;;9.60;;
8007;SDS011;4049;49.468;11.200;2024-03-02T09:34:06;15.20;;;9.50;;
8007;SDS011;4049;49.468;11.200;2024-03-02T09:36:32;13.70;;;9.27;;
8007;SDS011;4049;49.468;11.200;2024-03-02T09:38:59;16.43;;;9.77;;
8007;SDS011;4049;49.468;11.200;2024-03-02T09:41:28;15.83;;;9.37;;
8007;SDS011;4049;49.468;11.200;2024-03-02T09:43:55;14.13;;;8.70;;
8007;SDS011;4049;49.468;11.200;2024-03-02T09:46:24;18.30;;;10.77;;
8007;SDS011;4049;49.468;11.200;2024-03-02T09:48:51;12.83;;;8.67;;
8007;SDS011;4049;49.468;11.200;2024-03-02T09:51:18;13.53;;;8.83;;
8007;SDS011;4049;49.468;11.200;2024-03-02T09:53:46;13.97;;;8.73;;
8007;SDS011;4049;49.468;11.200;2024-03-02T09:56:14;11.73;;;8.07;;
8007;SDS011;4049;49.468;11.200;2024-03-02T09:58:43;13.83;;;8.53;;
8007;SDS011;4049;49.468;11.200;2024-03-02T10:01:10;13.83;;;8.53;;
8007;SDS011;4049;49.468;11.200;2024-03-02T10:03:38;16.03;;;9.20;;
8007;SDS011;4049;49.468;11.200;2024-03-02T10:06:18;14.97;;;9.70;;
8007;SDS011;4049;49.468;11.200;2024-03-02T10:08:45;15.30;;;9.63;;
8007;SDS011;4049;49.468;11.200;2024-03-02T10:11:19;15.10;;;8.47;;
8007;SDS011;4049;49.468;11.200;2024-03-02T10:14:03;14.77;;;9.30;;
8007;SDS011;4049;49.468;11.200;2024-03-02T10:16:33;15.80;;;8.87;;
8007;SDS011;4049;49.468;11.200;2024-03-02T10:19:14;13.90;;;8.40;;
8007;SDS011;4049;49.468;11.200;2024-03-02T10:21:42;13.30;;;8.63;;
8007;SDS011;4049;49.468;11.200;2024-03-02T10:24:09;18.50;;;9.10;;
8007;SDS011;4049;49.468;11.200;2024-03-02T10:26:37;14.97;;;9.00;;
8007;SDS011;4049;49.468;11.200;2024-03-02T10:29:04;14.10;;;9.10;;
8007;SDS011;4049;49.468;11.200;2024-03-02T10:31:31;13.70;;;9.00;;
8007;SDS011;4049;49.468;11.200;2024-03-02T10:33:58;13.93;;;8.53;;
8007;SDS011;4049;49.468;11.200;2024-03-02T10:36:28;14.73;;;9.43;;
8007;SDS011;4049;49.468;11.200;2024-03-02T10:38:56;12.20;;;7.87;;
8007;SDS011;4049;49.468;11.200;2024-03-02T10:41:24;14.57;;;8.93;;
8007;SDS011;4049;49.468;11.200;2024-03-02T10:43:53;14.40;;;9.33;;
8007;SDS011;4049;49.468;11.200;2024-03-02T10:46:25;14.53;;;9.10;;
8007;SDS011;4049;49.468;11.200;2024-03-02T10:48:55;16.53;;;10.07;;
8007;SDS011;4049;49.468;11.200;2024-03-02T10:51:23;13.87;;;8.43;;
8007;SDS011;4049;49.468;11.200;2024-03-02T10:53:52;12.77;;;8.73;;
8007;SDS011;4049;49.468;11.200;2024-03-02T10:56:21;13.70;;;9.07;;
8007;SDS011;4049;49.468;11.200;2024-03-02T10:58:54;14.03;;;8.63;;
8007;SDS011;4049;49.468;11.200;2024-03-02T11:01:28;12.27;;;8.43;;
8007;SDS011;4049;49.468;11.200;2024-03-02T11:03:57;15.10;;;8.97;;
8007;SDS011;4049;49.468;11.200;2024-03-02T11:06:26;13.10;;;8.33;;
8007;SDS011;4049;49.468;11.200;2024-03-02T11:08:58;12.07;;;7.67;;
8007;SDS011;4049;49.468;11.200;2024-03-02T11:11:35;13.10;;;8.50;;
8007;SDS011;4049;49.468;11.200;2024-03-02T11:14:04;11.67;;;7.60;;
8007;SDS011;4049;49.468;11.200;2024-03-02T11:16:35;11.93;;;7.93;;
8007;SDS011;4049;49.468;11.200;2024-03-02T11:19:04;12.33;;;7.50;;
8007;SDS011;4049;49.468;11.200;2024-03-02T11:21:33;12.73;;;7.77;;
8007;SDS011;4049;49.468;11.200;2024-03-02T11:24:06;11.33;;;8.20;;
8007;SDS011;4049;49.468;11.200;2024-03-02T11:26:59;10.97;;;7.50;;
8007;SDS011;4049;49.468;11.200;2024-03-02T11:29:44;10.83;;;7.23;;
8007;SDS011;4049;49.468;11.200;2024-03-02T11:32:16;12.33;;;7.70;;
8007;SDS011;4049;49.468;11.200;2024-03-02T11:34:46;13.57;;;8.17;;
8007;SDS011;4049;49.468;11.200;2024-03-02T11:37:14;13.00;;;8.70;;
8007;SDS011;4049;49.468;11.200;2024-03-02T11:39:44;15.93;;;10.20;;
8007;SDS011;4049;49.468;11.200;2024-03-02T11:42:12;15.73;;;9.33;;
8007;SDS011;4049;49.468;11.200;2024-03-02T11:44:41;15.93;;;9.30;;
8007;SDS011;4049;49.468;11.200;2024-03-02T11:47:10;18.47;;;10.87;;
8007;SDS011;4049;49.468;11.200;2024-03-02T11:49:40;17.53;;;10.30;;
8007;SDS011;4049;49.468;11.200;2024-03-02T11:52:10;22.77;;;11.27;;
8007;SDS011;4049;49.468;11.200;2024-03-02T11:54:38;17.67;;;10.53;;
8007;SDS011;4049;49.468;11.200;2024-03-02T11:57:13;17.47;;;11.47;;
8007;SDS011;4049;49.468;11.200;2024-03-02T11:59:41;16.50;;;10.37;;
8007;SDS011;4049;49.468;11.200;2024-03-02T12:02:12;16.20;;;9.97;;
8007;SDS011;4049;49.468;11.200;2024-03-02T12:04:41;19.03;;;11.07;;
8007;SDS011;4049;49.468;11.200;2024-03-02T12:07:10;15.30;;;9.47;;
8007;SDS011;4049;49.468;11.200;2024-03-02T12:09:37;15.97;;;10.50;;
8007;SDS011;4049;49.468;11.200;2024-03-02T12:12:04;15.47;;;9.93;;
8007;SDS011;4049;49.468;11.200;2024-03-02T12:14:33;17.00;;;10.43;;
8007;SDS011;4049;49.468;11.200;2024-03-02T12:17:01;16.70;;;9.37;;
8007;SDS011;4049;49.468;11.200;2024-03-02T12:19:28;13.73;;;9.33;;
8007;SDS011;4049;49.468;11.200;2024-03-02T12:21:56;15.53;;;9.57;;
8007;SDS011;4049;49.468;11.200;2024-03-02T12:24:23;18.83;;;10.50;;
8007;SDS011;4049;49.468;11.200;2024-03-02T12:26:53;18.93;;;10.60;;
8007;SDS011;4049;49.468;11.200;2024-03-02T12:29:21;17.50;;;10.90;;
8007;SDS011;4049;49.468;11.200;2024-03-02T12:31:50;17.97;;;10.87;;
8007;SDS011;4049;49.468;11.200;2024-03-02T12:34:18;18.40;;;11.50;;
8007;SDS011;4049;49.468;11.200;2024-03-02T12:36:45;19.20;;;11.90;;
8007;SDS011;4049;49.468;11.200;2024-03-02T12:39:14;15.27;;;9.93;;
8007;SDS011;4049;49.468;11.200;2024-03-02T12:41:44;20.57;;;12.07;;
8007;SDS011;4049;49.468;11.200;2024-03-02T12:44:15;19.20;;;11.03;;
8007;SDS011;4049;49.468;11.200;2024-03-02T12:46:43;19.03;;;11.60;;
8007;SDS011;4049;49.468;11.200;2024-03-02T12:49:12;19.10;;;12.17;;
8007;SDS011;4049;49.468;11.200;2024-03-02T12:51:41;18.30;;;11.73;;
8007;SDS011;4049;49.468;11.200;2024-03-02T12:54:08;20.77;;;12.30;;
8007;SDS011;4049;49.468;11.200;2024-03-02T12:56:36;17.00;;;10.40;;
8007;SDS011;4049;49.468;11.200;2024-03-02T12:59:03;16.60;;;10.07;;
8007;SDS011;4049;49.468;11.200;2024-03-02T13:01:31;15.07;;;9.97;;
8007;SDS011;4049;49.468;11.200;2024-03-02T13:03:58;17.80;;;10.27;;
8007;SDS011;4049;49.468;11.200;2024-03-02T13:06:26;17.90;;;10.80;;
8007;SDS011;4049;49.468;11.200;2024-03-02T13:08:54;16.47;;;10.43;;
8007;SDS011;4049;49.468;11.200;2024-03-02T13:11:21;15.53;;;10.77;;
8007;SDS011;4049;49.468;11.200;2024-03-02T13:13:50;14.90;;;9.47;;
8007;SDS011;4049;49.468;11.200;2024-03-02T13:16:18;15.10;;;9.50;;
8007;SDS011;4049;49.468;11.200;2024-03-02T13:18:45;13.70;;;8.67;;
8007;SDS011;4049;49.468;11.200;2024-03-02T13:21:12;14.73;;;9.33;;
8007;SDS011;4049;49.468;11.200;2024-03-02T13:23:41;17.37;;;10.07;;
8007;SDS011;4049;49.468;11.200;2024-03-02T13:26:07;14.87;;;9.33;;
8007;SDS011;4049;49.468;11.200;2024-03-02T13:28:36;16.70;;;9.60;;
8007;SDS011;4049;49.468;11.200;2024-03-02T13:31:04;16.77;;;9.43;;
8007;SDS011;4049;49.468;11.200;2024-03-02T13:33:31;18.63;;;10.40;;
8007;SDS011;4049;49.468;11.200;2024-03-02T13:35:58;16.40;;;9.77;;
8007;SDS011;4049;49.468;11.200;2024-03-02T13:38:26;17.63;;;10.13;;
8007;SDS011;4049;49.468;11.200;2024-03-02T13:40:54;16.20;;;9.90;;
8007;SDS011;4049;49.468;11.200;2024-03-02T13:43:21;16.73;;;10.37;;
8007;SDS011;4049;49.468;11.200;2024-03-02T13:45:49;17.60;;;10.27;;
8007;SDS011;4049;49.468;11.200;2024-03-02T13:48:17;18.23;;;10.47;;
8007;SDS011;4049;49.468;11.200;2024-03-02T13:50:44;16.27;;;10.77;;
8007;SDS011;4049;49.468;11.200;2024-03-02T13:53:11;18.20;;;11.20;;
8007;SDS011;4049;49.468;11.200;2024-03-02T13:55:38;20.03;;;11.43;;
8007;SDS011;4049;49.468;11.200;2024-03-02T13:58:08;20.47;;;12.13;;
8007;SDS011;4049;49.468;11.200;2024-03-02T14:00:35;17.77;;;11.53;;
8007;SDS011;4049;49.468;11.200;2024-03-02T14:03:03;18.97;;;11.83;;
8007;SDS011;4049;49.468;11.200;2024-03-02T14:05:32;19.77;;;11.63;;
8007;SDS011;4049;49.468;11.200;2024-03-02T14:07:59;19.73;;;12.03;;
8007;SDS011;4049;49.468;11.200;2024-03-02T14:10:26;20.27;;;11.33;;
8007;SDS011;4049;49.468;11.200;2024-03-02T14:12:54;23.13;;;11.80;;
8007;SDS011;4049;49.468;11.200;2024-03-02T14:15:22;17.00;;;10.63;;
8007;SDS011;4049;49.468;11.200;2024-03-02T14:17:50;19.10;;;10.70;;
8007;SDS011;4049;49.468;11.200;2024-03-02T14:20:16;19.90;;;11.00;;
8007;SDS011;4049;49.468;11.200;2024-03-02T14:22:47;17.80;;;10.73;;
8007;SDS011;4049;49.468;11.200;2024-03-02T14:25:14;19.73;;;11.10;;
8007;SDS011;4049;49.468;11.200;2024-03-02T14:27:41;20.30;;;11.43;;
8007;SDS011;4049;49.468;11.200;2024-03-02T14:30:08;19.40;;;11.57;;
8007;SDS011;4049;49.468;11.200;2024-03-02T14:32:37;17.67;;;10.47;;
8007;SDS011;4049;49.468;11.200;2024-03-02T14:35:05;18.80;;;9.90;;
8007;SDS011;4049;49.468;11.200;2024-03-02T14:37:34;18.13;;;10.27;;
8007;SDS011;4049;49.468;11.200;2024-03-02T14:40:01;19.33;;;10.47;;
8007;SDS011;4049;49.468;11.200;2024-03-02T14:42:31;18.73;;;11.17;;
8007;SDS011;4049;49.468;11.200;2024-03-02T14:44:58;18.47;;;11.37;;